createdAt,value
2023-02-11T00:01:36.508Z,29.20
2023-02-11T00:04:05.987Z,22.10
2023-02-11T00:06:35.437Z,35.78
2023-02-11T00:09:04.670Z,30.33
2023-02-11T00:11:32.655Z,29.88
2023-02-11T00:14:02.942Z,25.65
2023-02-11T00:16:32.062Z,25.27
2023-02-11T00:19:01.703Z,27.88
2023-02-11T00:21:29.737Z,25.48
2023-02-11T00:24:00.132Z,29.13
2023-02-11T00:26:31.234Z,32.05
2023-02-11T00:29:01.163Z,30.20
2023-02-11T00:31:29.325Z,24.50
2023-02-11T00:33:57.948Z,28.35
2023-02-11T00:36:27.921Z,26.27
2023-02-11T00:38:58.980Z,23.13
2023-02-11T00:41:27.760Z,19.98
2023-02-11T00:43:54.988Z,32.72
2023-02-11T00:46:23.104Z,30.42
2023-02-11T00:48:53.433Z,26.35
2023-02-11T00:51:26.460Z,22.52
2023-02-11T00:53:55.874Z,35.40
2023-02-11T00:56:23.711Z,23.88
2023-02-11T00:58:51.787Z,28.52
2023-02-11T01:01:20.154Z,27.67
2023-02-11T01:03:48.944Z,25.15
2023-02-11T01:06:17.643Z,23.88
2023-02-11T01:08:44.990Z,26.35
2023-02-11T01:11:19.034Z,22.70
2023-02-11T01:13:47.510Z,23.80
2023-02-11T01:16:19.731Z,36.35
2023-02-11T01:18:59.070Z,30.02
2023-02-11T01:21:26.905Z,23.95
2023-02-11T01:23:55.736Z,68.60
2023-02-11T01:26:23.176Z,64.15
2023-02-11T01:28:50.901Z,32.80
2023-02-11T01:31:20.252Z,33.30
2023-02-11T01:33:47.719Z,33.55
2023-02-11T01:36:15.683Z,22.38
2023-02-11T01:38:44.781Z,25.08
2023-02-11T01:41:15.197Z,27.30
2023-02-11T01:43:47.606Z,22.00
2023-02-11T01:46:24.271Z,23.88
2023-02-11T01:49:17.024Z,22.65
2023-02-11T01:52:01.598Z,21.65
2023-02-11T01:54:52.747Z,26.02
2023-02-11T01:57:27.247Z,27.27
2023-02-11T02:00:09.737Z,27.08
2023-02-11T02:03:02.009Z,27.27
2023-02-11T02:05:43.022Z,30.42
2023-02-11T02:08:22.789Z,30.08
2023-02-11T02:10:56.873Z,36.78
2023-02-11T02:13:26.081Z,45.90
2023-02-11T02:15:59.021Z,31.83
2023-02-11T02:18:56.893Z,28.00
2023-02-11T02:21:55.795Z,30.75
2023-02-11T02:24:41.731Z,23.80
2023-02-11T02:27:50.819Z,23.48
2023-02-11T02:30:39.021Z,22.35
2023-02-11T02:33:22.509Z,21.08
2023-02-11T02:36:01.622Z,22.52
2023-02-11T02:39:01.029Z,22.60
2023-02-11T02:41:33.578Z,21.17
2023-02-11T02:44:02.594Z,20.85
2023-02-11T02:46:33.632Z,19.98
2023-02-11T02:49:01.335Z,20.40
2023-02-11T02:51:53.005Z,21.17
2023-02-11T02:54:53.492Z,23.02
2023-02-11T02:57:39.100Z,19.10
2023-02-11T03:00:20.362Z,18.92
2023-02-11T03:03:08.301Z,19.80
2023-02-11T03:06:04.422Z,15.80
2023-02-11T03:08:47.456Z,17.95
2023-02-11T03:11:18.941Z,16.77
2023-02-11T03:13:48.848Z,16.92
2023-02-11T03:16:25.179Z,24.00
2023-02-11T03:19:26.489Z,19.80
2023-02-11T03:21:55.210Z,21.15
2023-02-11T03:24:33.464Z,29.67
2023-02-11T03:27:27.571Z,26.42
2023-02-11T03:30:14.873Z,25.48
2023-02-11T03:33:03.542Z,20.88
2023-02-11T03:35:42.548Z,24.13
2023-02-11T03:38:25.442Z,22.88
2023-02-11T03:40:55.606Z,27.63
2023-02-11T03:43:37.023Z,34.95
2023-02-11T03:46:05.811Z,25.05
2023-02-11T03:48:39.458Z,27.88
2023-02-11T03:51:10.365Z,26.08
2023-02-11T03:53:41.472Z,24.05
2023-02-11T03:56:12.969Z,29.13
2023-02-11T03:58:40.329Z,19.92
2023-02-11T04:01:09.960Z,26.27
2023-02-11T04:03:38.201Z,18.67
2023-02-11T04:06:06.453Z,14.45
2023-02-11T04:08:34.145Z,20.35
2023-02-11T04:11:02.525Z,22.38
2023-02-11T04:13:49.174Z,20.00
2023-02-11T04:16:36.936Z,30.90
2023-02-11T04:19:24.595Z,31.48
2023-02-11T04:22:12.364Z,18.33
2023-02-11T04:25:00.110Z,22.80
2023-02-11T04:27:47.847Z,18.48
2023-02-11T04:30:36.221Z,16.67
2023-02-11T04:33:25.210Z,15.77
2023-02-11T04:36:13.034Z,24.77
2023-02-11T04:39:00.760Z,17.90
2023-02-11T04:41:48.492Z,23.85
2023-02-11T04:44:37.329Z,21.20
2023-02-11T04:47:26.114Z,21.58
2023-02-11T04:50:13.853Z,28.13
2023-02-11T04:53:01.550Z,30.85
2023-02-11T04:55:52.336Z,27.92
2023-02-11T04:58:40.240Z,28.52
2023-02-11T05:01:28.169Z,32.58
2023-02-11T05:04:16.486Z,27.30
2023-02-11T05:07:04.663Z,22.85
2023-02-11T05:09:53.389Z,17.05
2023-02-11T05:12:41.187Z,21.42
2023-02-11T05:15:29.205Z,27.65
2023-02-11T05:18:16.929Z,30.90
2023-02-11T05:21:14.682Z,46.50
2023-02-11T05:24:02.327Z,45.70
2023-02-11T05:26:51.355Z,43.78
2023-02-11T05:29:39.347Z,33.75
2023-02-11T05:32:27.044Z,40.55
2023-02-11T05:35:14.869Z,29.55
2023-02-11T05:38:02.517Z,27.17
2023-02-11T05:40:50.875Z,35.30
2023-02-11T05:43:39.960Z,23.98
2023-02-11T05:46:28.031Z,30.83
2023-02-11T05:49:17.682Z,51.22
2023-02-11T05:52:06.640Z,62.22
2023-02-11T05:54:54.263Z,50.65
2023-02-11T05:57:42.210Z,40.88
2023-02-11T06:00:30.029Z,40.20
2023-02-11T06:03:17.829Z,45.67
2023-02-11T06:06:06.119Z,41.03
2023-02-11T06:08:55.108Z,43.00
2023-02-11T06:11:42.950Z,28.17
2023-02-11T06:14:32.498Z,24.55
2023-02-11T06:17:26.994Z,31.38
2023-02-11T06:20:14.908Z,25.85
2023-02-11T06:23:03.281Z,19.05
2023-02-11T06:25:52.129Z,18.95
2023-02-11T06:28:41.984Z,22.55
2023-02-11T06:31:31.037Z,26.53
2023-02-11T06:34:18.803Z,38.17
2023-02-11T06:37:07.558Z,36.60
2023-02-11T06:39:55.538Z,31.92
2023-02-11T06:42:44.623Z,25.60
2023-02-11T06:45:33.566Z,24.83
2023-02-11T06:48:21.673Z,29.38
2023-02-11T06:51:11.483Z,35.67
2023-02-11T06:53:59.276Z,55.13
2023-02-11T06:56:47.918Z,76.80
2023-02-11T06:59:35.778Z,71.32
2023-02-11T07:02:23.948Z,52.30
2023-02-11T07:05:17.734Z,35.63
2023-02-11T07:08:06.283Z,37.65
2023-02-11T07:10:54.219Z,46.85
2023-02-11T07:13:42.516Z,33.10
2023-02-11T07:16:31.251Z,38.97
2023-02-11T07:19:19.989Z,28.88
2023-02-11T07:22:09.053Z,47.33
2023-02-11T07:24:56.735Z,52.03
2023-02-11T07:27:44.733Z,47.92
2023-02-11T07:30:32.578Z,50.17
2023-02-11T07:33:23.564Z,45.50
2023-02-11T07:36:14.345Z,41.50
2023-02-11T07:39:02.148Z,30.45
2023-02-11T07:45:58.713Z,32.30
2023-02-11T07:48:47.108Z,25.10
2023-02-11T07:51:35.885Z,26.00
2023-02-11T07:54:25.921Z,34.60
2023-02-11T07:57:13.755Z,53.95
2023-02-11T08:00:01.968Z,73.82
2023-02-11T08:02:58.530Z,63.03
2023-02-11T08:05:47.127Z,47.03
2023-02-11T08:08:35.166Z,44.33
2023-02-11T08:11:25.508Z,44.22
2023-02-11T08:14:13.362Z,55.75
2023-02-11T08:17:01.004Z,57.78
2023-02-11T08:19:49.087Z,52.08
2023-02-11T08:22:37.101Z,53.17
2023-02-11T08:25:24.828Z,48.60
2023-02-11T08:28:12.517Z,55.83
2023-02-11T08:31:10.557Z,55.33
2023-02-11T08:33:58.384Z,52.35
2023-02-11T08:36:47.615Z,59.65
2023-02-11T08:39:36.689Z,62.10
2023-02-11T08:42:24.549Z,63.80
2023-02-11T08:45:13.464Z,55.88
2023-02-11T08:48:01.461Z,57.83
2023-02-11T08:50:50.675Z,52.80
2023-02-11T08:53:39.958Z,58.65
2023-02-11T08:56:28.235Z,77.38
2023-02-11T08:59:17.963Z,45.15
2023-02-11T09:02:06.264Z,50.15
2023-02-11T09:04:54.196Z,63.70
2023-02-11T09:07:41.986Z,54.67
2023-02-11T09:10:30.058Z,59.40
2023-02-11T09:13:17.845Z,59.67
2023-02-11T09:16:07.366Z,65.82
2023-02-11T09:18:57.671Z,53.90
2023-02-11T09:21:46.119Z,59.00
2023-02-11T09:24:33.843Z,92.82
2023-02-11T09:27:21.494Z,73.72
2023-02-11T09:30:09.740Z,70.70
2023-02-11T09:32:57.541Z,76.07
2023-02-11T09:35:45.303Z,76.07
2023-02-11T09:38:33.792Z,97.05
2023-02-11T09:41:34.570Z,90.35
2023-02-11T09:44:29.803Z,94.20
2023-02-11T09:47:34.423Z,98.35
2023-02-11T09:50:47.957Z,97.93
2023-02-11T09:53:41.569Z,126.25
2023-02-11T09:56:34.608Z,102.72
2023-02-11T09:59:22.920Z,137.90
2023-02-11T10:02:45.284Z,124.68
2023-02-11T10:05:43.987Z,170.15
2023-02-11T10:08:33.305Z,158.97
2023-02-11T10:11:36.066Z,133.88
2023-02-11T10:14:49.394Z,106.50
2023-02-11T10:17:55.607Z,121.35
2023-02-11T10:20:50.272Z,110.63
2023-02-11T10:23:41.622Z,88.65
2023-02-11T10:26:33.196Z,106.85
2023-02-11T10:29:50.433Z,93.68
2023-02-11T10:33:08.941Z,92.80
2023-02-11T10:35:56.779Z,83.70
2023-02-11T10:38:45.162Z,73.18
2023-02-11T10:41:42.177Z,74.40
2023-02-11T10:44:44.404Z,68.15
2023-02-11T10:47:37.715Z,64.05
2023-02-11T10:50:29.319Z,56.15
2023-02-11T10:53:24.530Z,61.38
2023-02-11T10:56:24.178Z,54.47
2023-02-11T10:59:33.244Z,50.10
2023-02-11T11:02:37.052Z,39.28
2023-02-11T11:05:46.114Z,46.67
2023-02-11T11:08:48.142Z,46.60
2023-02-11T11:11:54.846Z,43.00
2023-02-11T11:14:55.156Z,33.55
2023-02-11T11:17:43.123Z,37.67
2023-02-11T11:20:36.494Z,34.60
2023-02-11T11:23:25.429Z,37.10
2023-02-11T11:26:15.754Z,32.35
2023-02-11T11:29:14.683Z,29.90
2023-02-11T11:32:37.988Z,100.95
2023-02-11T11:35:28.901Z,27.63
2023-02-11T11:38:17.727Z,26.25
2023-02-11T11:41:20.436Z,29.27
2023-02-11T11:44:31.568Z,31.80
2023-02-11T11:47:27.299Z,34.53
2023-02-11T11:50:26.528Z,41.85
2023-02-11T11:53:28.428Z,62.53
2023-02-11T11:56:30.369Z,49.40
2023-02-11T11:59:20.545Z,30.15
2023-02-11T12:02:29.699Z,37.83
2023-02-11T12:05:42.349Z,31.75
2023-02-11T12:08:32.923Z,55.40
2023-02-11T12:11:33.704Z,39.47
2023-02-11T12:17:53.269Z,39.20
2023-02-11T12:20:51.204Z,41.17
2023-02-11T12:24:29.664Z,37.85
2023-02-11T12:27:43.019Z,31.80
2023-02-11T12:31:01.800Z,33.05
2023-02-11T12:34:00.764Z,29.73
2023-02-11T12:37:03.668Z,31.35
2023-02-11T12:40:13.642Z,39.08
2023-02-11T12:43:16.765Z,32.10
2023-02-11T12:46:56.535Z,35.08
2023-02-11T12:50:08.595Z,48.95
2023-02-11T12:53:15.255Z,45.40
2023-02-11T12:56:18.026Z,33.97
2023-02-11T12:59:14.414Z,65.82
2023-02-11T13:02:16.161Z,63.38
2023-02-11T13:05:26.640Z,36.45
2023-02-11T13:08:43.477Z,29.17
2023-02-11T13:11:44.372Z,47.75
2023-02-11T13:14:37.053Z,35.45
2023-02-11T13:17:46.424Z,34.78
2023-02-11T13:20:39.904Z,29.92
2023-02-11T13:23:41.909Z,59.85
2023-02-11T13:26:49.796Z,34.70
2023-02-11T13:29:44.075Z,50.70
2023-02-11T13:32:55.680Z,38.28
2023-02-11T13:36:09.659Z,35.85
2023-02-11T13:39:00.745Z,54.38
2023-02-11T13:41:52.529Z,29.27
2023-02-11T13:44:40.438Z,28.35
2023-02-11T13:47:34.992Z,35.45
2023-02-11T13:50:25.623Z,36.25
2023-02-11T13:56:12.030Z,34.22
2023-02-11T13:59:02.448Z,38.90
2023-02-11T14:05:38.331Z,73.13
2023-02-11T14:08:45.339Z,32.67
2023-02-11T14:11:41.092Z,34.70
2023-02-11T14:14:34.050Z,30.25
2023-02-11T14:17:31.637Z,32.00
2023-02-11T14:20:43.583Z,28.90
2023-02-11T14:23:32.908Z,30.80
2023-02-11T14:26:20.509Z,29.35
2023-02-11T14:29:25.671Z,25.52
2023-02-11T14:32:38.187Z,48.88
2023-02-11T14:35:48.489Z,38.78
2023-02-11T14:38:56.233Z,40.20
2023-02-11T14:41:46.402Z,34.70
2023-02-11T14:44:35.286Z,46.95
2023-02-11T14:48:02.904Z,30.63
2023-02-11T14:51:10.698Z,36.85
2023-02-11T14:54:13.810Z,28.15
2023-02-11T14:57:08.457Z,30.95
2023-02-11T14:59:59.492Z,36.30
2023-02-11T15:02:49.469Z,33.70
2023-02-11T15:05:37.369Z,32.85
2023-02-11T15:08:25.654Z,29.73
2023-02-11T15:11:17.595Z,31.17
2023-02-11T15:14:32.078Z,39.47
2023-02-11T15:17:26.050Z,57.75
2023-02-11T15:20:27.096Z,42.53
2023-02-11T15:23:25.056Z,53.00
2023-02-11T15:26:15.466Z,39.88
2023-02-11T15:29:03.140Z,39.00
2023-02-11T15:32:05.953Z,38.42
2023-02-11T15:34:54.704Z,40.10
2023-02-11T15:37:42.474Z,36.90
2023-02-11T15:40:33.305Z,36.05
2023-02-11T15:46:11.869Z,53.72
2023-02-11T15:49:02.338Z,46.75
2023-02-11T15:51:50.870Z,45.65
2023-02-11T15:54:39.331Z,47.70
2023-02-11T15:57:28.997Z,45.83
2023-02-11T16:00:19.796Z,41.58
2023-02-11T16:03:07.526Z,46.42
2023-02-11T16:05:56.700Z,40.25
2023-02-11T16:09:00.324Z,51.03
2023-02-11T16:11:48.377Z,45.75
2023-02-11T16:14:39.939Z,47.53
2023-02-11T16:17:29.620Z,41.00
2023-02-11T16:20:20.968Z,47.90
2023-02-11T16:23:08.725Z,55.13
2023-02-11T16:26:07.202Z,61.88
2023-02-11T16:29:13.693Z,89.82
2023-02-11T16:32:19.168Z,63.35
2023-02-11T16:35:12.815Z,60.20
2023-02-11T16:38:01.517Z,53.47
2023-02-11T16:40:50.214Z,54.45
2023-02-11T16:43:38.510Z,47.60
2023-02-11T16:46:27.692Z,45.15
2023-02-11T16:49:27.794Z,42.25
2023-02-11T16:52:16.861Z,39.25
2023-02-11T16:55:06.313Z,38.05
2023-02-11T16:57:54.152Z,38.10
2023-02-11T17:00:43.588Z,52.00
2023-02-11T17:03:37.928Z,54.22
2023-02-11T17:06:26.061Z,54.15
2023-02-11T17:09:29.764Z,56.05
2023-02-11T17:12:20.986Z,44.88
2023-02-11T17:17:56.989Z,43.88
2023-02-11T17:20:45.471Z,30.52
2023-02-11T17:23:33.154Z,43.42
2023-02-11T17:26:20.792Z,36.25
2023-02-11T17:29:11.669Z,38.35
2023-02-11T17:34:47.401Z,34.45
2023-02-11T17:37:36.468Z,56.03
2023-02-11T17:40:24.469Z,57.90
2023-02-11T17:43:12.976Z,47.10
2023-02-11T17:46:00.786Z,43.95
2023-02-11T17:48:48.594Z,46.65
2023-02-11T17:51:39.858Z,46.13
2023-02-11T17:54:27.554Z,71.32
2023-02-11T17:57:15.464Z,59.20
2023-02-11T18:00:05.348Z,52.70
2023-02-11T18:03:03.245Z,117.15
2023-02-11T18:05:52.872Z,76.18
2023-02-11T18:08:42.924Z,76.53
2023-02-11T18:11:33.591Z,70.15
2023-02-11T18:14:22.412Z,67.07
2023-02-11T18:17:10.579Z,60.70
2023-02-11T18:19:58.450Z,53.28
2023-02-11T18:22:46.294Z,54.83
2023-02-11T18:25:34.047Z,49.65
2023-02-11T18:28:22.611Z,57.70
2023-02-11T18:31:11.798Z,76.07
2023-02-11T18:34:00.143Z,74.10
2023-02-11T18:36:49.034Z,83.57
2023-02-11T18:39:39.702Z,64.13
2023-02-11T18:42:28.383Z,69.10
2023-02-11T18:45:16.484Z,58.47
2023-02-11T18:48:05.529Z,52.75
2023-02-11T18:50:54.779Z,59.65
2023-02-11T18:53:43.582Z,56.92
2023-02-11T18:56:32.274Z,56.08
2023-02-11T18:59:20.064Z,52.78
2023-02-11T19:02:09.637Z,63.00
2023-02-11T19:04:57.569Z,77.18
2023-02-11T19:07:46.120Z,63.40
2023-02-11T19:10:34.160Z,67.15
2023-02-11T19:13:21.918Z,62.22
2023-02-11T19:16:11.701Z,76.75
2023-02-11T19:21:53.713Z,63.95
2023-02-11T19:24:42.665Z,90.45
2023-02-11T19:27:30.343Z,77.07
2023-02-11T19:30:19.195Z,77.68
2023-02-11T19:33:10.399Z,75.60
2023-02-11T19:36:04.576Z,66.78
2023-02-11T19:38:52.317Z,69.90
2023-02-11T19:41:40.290Z,89.57
2023-02-11T19:44:28.426Z,111.68
2023-02-11T19:47:16.340Z,155.57
2023-02-11T19:50:05.379Z,113.38
2023-02-11T19:52:55.020Z,89.17
2023-02-11T19:55:44.294Z,81.72
2023-02-11T19:58:32.206Z,95.03
2023-02-11T20:01:22.040Z,98.45
2023-02-11T20:04:09.824Z,76.20
2023-02-11T20:07:03.818Z,76.72
2023-02-11T20:09:53.972Z,65.72
2023-02-11T20:12:42.567Z,84.38
2023-02-11T20:15:33.165Z,65.93
2023-02-11T20:18:22.417Z,99.90
2023-02-11T20:21:27.081Z,74.70
2023-02-11T20:24:17.892Z,118.70
2023-02-11T20:27:29.804Z,94.97
2023-02-11T20:30:18.544Z,99.63
2023-02-11T20:33:06.198Z,83.50
2023-02-11T20:35:58.944Z,78.47
2023-02-11T20:38:47.151Z,82.88
2023-02-11T20:41:37.072Z,114.05
2023-02-11T20:44:25.354Z,82.53
2023-02-11T20:47:13.661Z,95.32
2023-02-11T20:50:01.381Z,89.78
2023-02-11T20:52:49.868Z,81.15
2023-02-11T20:55:39.977Z,71.53
2023-02-11T20:58:28.138Z,97.97
2023-02-11T21:01:19.008Z,84.53
2023-02-11T21:06:59.310Z,63.70
2023-02-11T21:09:48.367Z,80.20
2023-02-11T21:12:37.508Z,285.83
2023-02-11T21:15:26.502Z,147.25
2023-02-11T21:18:15.015Z,88.07
2023-02-11T21:21:04.839Z,126.15
2023-02-11T21:25:10.105Z,161.07
2023-02-11T21:28:02.914Z,107.47
2023-02-11T21:30:51.677Z,92.50
2023-02-11T21:33:42.271Z,104.63
2023-02-11T21:36:57.324Z,89.82
2023-02-11T21:39:46.844Z,259.65
2023-02-11T21:42:35.249Z,183.00
2023-02-11T21:45:25.640Z,137.10
2023-02-11T21:48:14.300Z,68.45
2023-02-11T21:51:26.936Z,58.15
2023-02-11T21:54:14.783Z,75.88
2023-02-11T21:57:03.379Z,71.85
2023-02-11T21:59:51.078Z,78.47
2023-02-11T22:02:56.240Z,76.57
2023-02-11T22:05:43.924Z,120.05
2023-02-11T22:08:31.617Z,68.30
2023-02-11T22:11:20.032Z,95.20
2023-02-11T22:14:10.652Z,88.30
2023-02-11T22:16:58.333Z,86.45
2023-02-11T22:19:45.997Z,66.10
2023-02-11T22:22:33.820Z,63.53
2023-02-11T22:26:11.287Z,62.78
2023-02-11T22:28:59.070Z,48.25
2023-02-11T22:31:46.943Z,54.67
2023-02-11T22:34:35.869Z,59.67
2023-02-11T22:37:23.645Z,75.22
2023-02-11T22:40:11.935Z,74.47
2023-02-11T22:42:59.709Z,87.07
2023-02-11T22:45:47.638Z,80.50
2023-02-11T22:48:36.723Z,62.67
2023-02-11T22:51:44.823Z,63.72
2023-02-11T22:54:32.653Z,76.82
2023-02-11T22:57:20.607Z,75.53
2023-02-11T23:00:10.150Z,72.97
2023-02-11T23:02:59.136Z,60.72
2023-02-11T23:05:46.866Z,62.80
2023-02-11T23:09:49.951Z,78.07
2023-02-11T23:12:41.523Z,90.50
2023-02-11T23:15:29.317Z,67.25
2023-02-11T23:18:17.045Z,87.53
2023-02-11T23:21:11.307Z,70.38
2023-02-11T23:24:02.445Z,66.28
2023-02-11T23:26:50.245Z,59.90
2023-02-11T23:29:37.999Z,55.80
2023-02-11T23:32:26.335Z,57.95
2023-02-11T23:35:22.166Z,73.60
2023-02-11T23:38:10.910Z,66.50
2023-02-11T23:40:58.729Z,66.28
2023-02-11T23:43:51.044Z,70.38
2023-02-11T23:46:39.003Z,95.03
2023-02-11T23:49:26.732Z,115.60
2023-02-11T23:52:14.563Z,132.20
2023-02-11T23:55:02.820Z,85.00
2023-02-11T23:57:50.545Z,84.57
